sensor_id;sensor_type;location;lat;lon;timestamp;P1;durP1;ratioP1;P2;durP2;ratioP2
46767;SDS011;69007;48.978;18.066;2024-02-15T00:01:15;16.38;;;11.77;;
46767;SDS011;69007;48.978;18.066;2024-02-15T00:03:41;13.80;;;10.55;;
46767;SDS011;69007;48.978;18.066;2024-02-15T00:06:06;20.63;;;10.27;;
46767;SDS011;69007;48.978;18.066;2024-02-15T00:08:31;17.15;;;10.68;;
46767;SDS011;69007;48.978;18.066;2024-02-15T00:10:57;20.60;;;10.60;;
46767;SDS011;69007;48.978;18.066;2024-02-15T00:13:23;18.55;;;10.05;;
46767;SDS011;69007;48.978;18.066;2024-02-15T00:15:48;17.10;;;11.68;;
46767;SDS011;69007;48.978;18.066;2024-02-15T00:18:15;16.85;;;11.18;;
46767;SDS011;69007;48.978;18.066;2024-02-15T00:20:41;18.35;;;11.00;;
46767;SDS011;69007;48.978;18.066;2024-02-15T00:23:06;19.20;;;11.70;;
46767;SDS011;69007;48.978;18.066;2024-02-15T00:25:32;18.60;;;11.60;;
46767;SDS011;69007;48.978;18.066;2024-02-15T00:27:58;14.95;;;10.50;;
46767;SDS011;69007;48.978;18.066;2024-02-15T00:30:27;21.80;;;11.98;;
46767;SDS011;69007;48.978;18.066;2024-02-15T00:32:52;17.88;;;11.43;;
46767;SDS011;69007;48.978;18.066;2024-02-15T00:35:18;15.75;;;10.43;;
46767;SDS011;69007;48.978;18.066;2024-02-15T00:37:44;14.45;;;10.13;;
46767;SDS011;69007;48.978;18.066;2024-02-15T00:40:10;17.38;;;10.35;;
46767;SDS011;69007;48.978;18.066;2024-02-15T00:42:36;16.02;;;11.45;;
46767;SDS011;69007;48.978;18.066;2024-02-15T00:45:01;20.20;;;11.10;;
46767;SDS011;69007;48.978;18.066;2024-02-15T00:47:27;16.85;;;11.20;;
46767;SDS011;69007;48.978;18.066;2024-02-15T00:49:53;17.35;;;11.63;;
46767;SDS011;69007;48.978;18.066;2024-02-15T00:52:19;13.57;;;9.25;;
46767;SDS011;69007;48.978;18.066;2024-02-15T00:54:48;21.45;;;11.35;;
46767;SDS011;69007;48.978;18.066;2024-02-15T00:57:13;26.38;;;16.73;;
46767;SDS011;69007;48.978;18.066;2024-02-15T00:59:38;31.73;;;18.65;;
46767;SDS011;69007;48.978;18.066;2024-02-15T01:02:04;26.70;;;16.80;;
46767;SDS011;69007;48.978;18.066;2024-02-15T01:04:30;26.38;;;17.02;;
46767;SDS011;69007;48.978;18.066;2024-02-15T01:06:56;30.58;;;18.45;;
46767;SDS011;69007;48.978;18.066;2024-02-15T01:09:21;29.98;;;17.52;;
46767;SDS011;69007;48.978;18.066;2024-02-15T01:11:47;23.90;;;16.50;;
46767;SDS011;69007;48.978;18.066;2024-02-15T01:14:13;26.60;;;15.98;;
46767;SDS011;69007;48.978;18.066;2024-02-15T01:16:40;20.25;;;14.25;;
46767;SDS011;69007;48.978;18.066;2024-02-15T01:19:06;23.20;;;13.35;;
46767;SDS011;69007;48.978;18.066;2024-02-15T01:21:31;19.00;;;13.18;;
46767;SDS011;69007;48.978;18.066;2024-02-15T01:23:58;22.35;;;13.75;;
46767;SDS011;69007;48.978;18.066;2024-02-15T01:26:25;21.85;;;14.73;;
46767;SDS011;69007;48.978;18.066;2024-02-15T01:28:51;19.58;;;13.85;;
46767;SDS011;69007;48.978;18.066;2024-02-15T01:31:16;20.13;;;13.70;;
46767;SDS011;69007;48.978;18.066;2024-02-15T01:33:42;25.67;;;13.55;;
46767;SDS011;69007;48.978;18.066;2024-02-15T01:36:08;19.92;;;13.98;;
46767;SDS011;69007;48.978;18.066;2024-02-15T01:38:33;18.85;;;13.57;;
46767;SDS011;69007;48.978;18.066;2024-02-15T01:40:59;33.03;;;13.20;;
46767;SDS011;69007;48.978;18.066;2024-02-15T01:43:24;21.90;;;13.07;;
46767;SDS011;69007;48.978;18.066;2024-02-15T01:45:50;21.52;;;13.57;;
46767;SDS011;69007;48.978;18.066;2024-02-15T01:48:16;25.77;;;13.95;;
46767;SDS011;69007;48.978;18.066;2024-02-15T01:50:41;21.73;;;14.60;;
46767;SDS011;69007;48.978;18.066;2024-02-15T01:53:08;21.10;;;13.82;;
46767;SDS011;69007;48.978;18.066;2024-02-15T01:55:35;27.83;;;13.30;;
46767;SDS011;69007;48.978;18.066;2024-02-15T01:58:03;22.58;;;13.55;;
46767;SDS011;69007;48.978;18.066;2024-02-15T02:00:28;25.73;;;15.45;;
46767;SDS011;69007;48.978;18.066;2024-02-15T02:02:55;24.85;;;16.20;;
46767;SDS011;69007;48.978;18.066;2024-02-15T02:05:25;25.90;;;16.48;;
46767;SDS011;69007;48.978;18.066;2024-02-15T02:07:53;27.00;;;15.57;;
46767;SDS011;69007;48.978;18.066;2024-02-15T02:10:18;24.63;;;16.08;;
46767;SDS011;69007;48.978;18.066;2024-02-15T02:12:45;25.30;;;15.05;;
46767;SDS011;69007;48.978;18.066;2024-02-15T02:15:10;26.65;;;14.88;;
46767;SDS011;69007;48.978;18.066;2024-02-15T02:17:36;24.75;;;15.75;;
46767;SDS011;69007;48.978;18.066;2024-02-15T02:20:02;24.02;;;14.13;;
46767;SDS011;69007;48.978;18.066;2024-02-15T02:22:33;25.73;;;15.68;;
46767;SDS011;69007;48.978;18.066;2024-02-15T02:25:05;21.55;;;14.07;;
46767;SDS011;69007;48.978;18.066;2024-02-15T02:27:33;22.70;;;14.23;;
46767;SDS011;69007;48.978;18.066;2024-02-15T02:29:59;26.88;;;15.13;;
46767;SDS011;69007;48.978;18.066;2024-02-15T02:32:27;26.60;;;15.05;;
46767;SDS011;69007;48.978;18.066;2024-02-15T02:34:52;25.00;;;15.65;;
46767;SDS011;69007;48.978;18.066;2024-02-15T02:37:22;26.75;;;14.80;;
46767;SDS011;69007;48.978;18.066;2024-02-15T02:39:50;24.75;;;15.75;;
46767;SDS011;69007;48.978;18.066;2024-02-15T02:42:16;22.63;;;15.07;;
46767;SDS011;69007;48.978;18.066;2024-02-15T02:44:41;23.88;;;15.30;;
46767;SDS011;69007;48.978;18.066;2024-02-15T02:47:07;26.45;;;16.13;;
46767;SDS011;69007;48.978;18.066;2024-02-15T02:49:32;25.38;;;15.55;;
46767;SDS011;69007;48.978;18.066;2024-02-15T02:52:00;26.83;;;16.30;;
46767;SDS011;69007;48.978;18.066;2024-02-15T02:54:25;24.17;;;15.13;;
46767;SDS011;69007;48.978;18.066;2024-02-15T02:56:50;25.25;;;15.75;;
46767;SDS011;69007;48.978;18.066;2024-02-15T02:59:16;23.92;;;15.32;;
46767;SDS011;69007;48.978;18.066;2024-02-15T03:01:41;22.30;;;15.38;;
46767;SDS011;69007;48.978;18.066;2024-02-15T03:04:07;25.33;;;14.52;;
46767;SDS011;69007;48.978;18.066;2024-02-15T03:06:33;27.08;;;14.50;;
46767;SDS011;69007;48.978;18.066;2024-02-15T03:08:58;21.38;;;14.68;;
46767;SDS011;69007;48.978;18.066;2024-02-15T03:11:23;28.38;;;14.80;;
46767;SDS011;69007;48.978;18.066;2024-02-15T03:13:49;23.45;;;14.60;;
46767;SDS011;69007;48.978;18.066;2024-02-15T03:16:14;21.77;;;14.15;;
46767;SDS011;69007;48.978;18.066;2024-02-15T03:18:41;21.52;;;14.80;;
46767;SDS011;69007;48.978;18.066;2024-02-15T03:21:08;19.17;;;13.55;;
46767;SDS011;69007;48.978;18.066;2024-02-15T03:23:35;26.52;;;15.35;;
46767;SDS011;69007;48.978;18.066;2024-02-15T03:26:02;21.67;;;14.23;;
46767;SDS011;69007;48.978;18.066;2024-02-15T03:28:28;20.00;;;13.35;;
46767;SDS011;69007;48.978;18.066;2024-02-15T03:30:54;26.98;;;14.65;;
46767;SDS011;69007;48.978;18.066;2024-02-15T03:33:20;24.38;;;15.60;;
46767;SDS011;69007;48.978;18.066;2024-02-15T03:35:51;27.10;;;16.55;;
46767;SDS011;69007;48.978;18.066;2024-02-15T03:38:16;30.17;;;19.25;;
46767;SDS011;69007;48.978;18.066;2024-02-15T03:40:42;45.72;;;26.90;;
46767;SDS011;69007;48.978;18.066;2024-02-15T03:43:08;57.95;;;34.83;;
46767;SDS011;69007;48.978;18.066;2024-02-15T03:45:34;46.78;;;27.85;;
46767;SDS011;69007;48.978;18.066;2024-02-15T03:47:59;40.33;;;21.40;;
46767;SDS011;69007;48.978;18.066;2024-02-15T03:50:24;34.42;;;17.92;;
46767;SDS011;69007;48.978;18.066;2024-02-15T03:52:50;23.52;;;15.82;;
46767;SDS011;69007;48.978;18.066;2024-02-15T03:55:15;23.48;;;15.18;;
46767;SDS011;69007;48.978;18.066;2024-02-15T03:57:41;26.77;;;14.43;;
46767;SDS011;69007;48.978;18.066;2024-02-15T04:00:08;26.10;;;15.23;;
46767;SDS011;69007;48.978;18.066;2024-02-15T04:02:36;25.02;;;15.30;;
46767;SDS011;69007;48.978;18.066;2024-02-15T04:05:02;25.42;;;15.85;;
46767;SDS011;69007;48.978;18.066;2024-02-15T04:07:30;23.60;;;15.15;;
46767;SDS011;69007;48.978;18.066;2024-02-15T04:09:55;22.98;;;14.35;;
46767;SDS011;69007;48.978;18.066;2024-02-15T04:12:21;26.15;;;13.98;;
46767;SDS011;69007;48.978;18.066;2024-02-15T04:14:47;23.10;;;14.50;;
46767;SDS011;69007;48.978;18.066;2024-02-15T04:17:13;22.17;;;13.98;;
46767;SDS011;69007;48.978;18.066;2024-02-15T04:19:45;27.85;;;16.25;;
46767;SDS011;69007;48.978;18.066;2024-02-15T04:22:11;21.60;;;14.45;;
46767;SDS011;69007;48.978;18.066;2024-02-15T04:24:37;24.40;;;14.73;;
46767;SDS011;69007;48.978;18.066;2024-02-15T04:27:09;25.65;;;17.33;;
46767;SDS011;69007;48.978;18.066;2024-02-15T04:29:37;27.52;;;15.45;;
46767;SDS011;69007;48.978;18.066;2024-02-15T04:32:05;27.42;;;15.18;;
46767;SDS011;69007;48.978;18.066;2024-02-15T04:34:33;26.00;;;14.27;;
46767;SDS011;69007;48.978;18.066;2024-02-15T04:36:59;24.33;;;14.70;;
46767;SDS011;69007;48.978;18.066;2024-02-15T04:39:24;20.48;;;12.85;;
46767;SDS011;69007;48.978;18.066;2024-02-15T04:41:52;20.40;;;13.35;;
46767;SDS011;69007;48.978;18.066;2024-02-15T04:44:20;22.58;;;14.43;;
46767;SDS011;69007;48.978;18.066;2024-02-15T04:46:46;23.85;;;14.05;;
46767;SDS011;69007;48.978;18.066;2024-02-15T04:49:12;19.52;;;12.85;;
46767;SDS011;69007;48.978;18.066;2024-02-15T04:51:39;24.50;;;13.93;;
46767;SDS011;69007;48.978;18.066;2024-02-15T04:54:09;20.90;;;12.95;;
46767;SDS011;69007;48.978;18.066;2024-02-15T04:56:38;20.92;;;12.88;;
46767;SDS011;69007;48.978;18.066;2024-02-15T04:59:04;24.30;;;11.90;;
46767;SDS011;69007;48.978;18.066;2024-02-15T05:01:33;22.05;;;13.55;;
46767;SDS011;69007;48.978;18.066;2024-02-15T05:03:59;17.33;;;11.82;;
46767;SDS011;69007;48.978;18.066;2024-02-15T05:06:25;19.83;;;12.65;;
46767;SDS011;69007;48.978;18.066;2024-02-15T05:08:54;24.35;;;12.30;;
46767;SDS011;69007;48.978;18.066;2024-02-15T05:11:21;18.67;;;12.93;;
46767;SDS011;69007;48.978;18.066;2024-02-15T05:13:47;23.75;;;14.30;;
46767;SDS011;69007;48.978;18.066;2024-02-15T05:16:16;19.75;;;13.00;;
46767;SDS011;69007;48.978;18.066;2024-02-15T05:18:41;17.70;;;12.10;;
46767;SDS011;69007;48.978;18.066;2024-02-15T05:21:07;20.58;;;12.32;;
46767;SDS011;69007;48.978;18.066;2024-02-15T05:23:36;20.80;;;12.00;;
46767;SDS011;69007;48.978;18.066;2024-02-15T05:26:02;20.25;;;12.95;;
46767;SDS011;69007;48.978;18.066;2024-02-15T05:28:28;17.45;;;12.20;;
46767;SDS011;69007;48.978;18.066;2024-02-15T05:31:10;19.80;;;11.50;;
46767;SDS011;69007;48.978;18.066;2024-02-15T05:33:50;22.10;;;12.60;;
46767;SDS011;69007;48.978;18.066;2024-02-15T05:36:17;25.38;;;16.73;;
46767;SDS011;69007;48.978;18.066;2024-02-15T05:38:46;28.30;;;17.98;;
46767;SDS011;69007;48.978;18.066;2024-02-15T05:41:12;27.10;;;17.50;;
46767;SDS011;69007;48.978;18.066;2024-02-15T05:43:41;31.80;;;20.42;;
46767;SDS011;69007;48.978;18.066;2024-02-15T05:46:07;45.03;;;23.52;;
46767;SDS011;69007;48.978;18.066;2024-02-15T05:48:33;40.30;;;23.60;;
46767;SDS011;69007;48.978;18.066;2024-02-15T05:51:00;49.03;;;24.95;;
46767;SDS011;69007;48.978;18.066;2024-02-15T05:53:26;55.53;;;30.10;;
46767;SDS011;69007;48.978;18.066;2024-02-15T05:55:52;60.97;;;28.45;;
46767;SDS011;69007;48.978;18.066;2024-02-15T05:58:18;53.80;;;28.13;;
46767;SDS011;69007;48.978;18.066;2024-02-15T06:00:43;43.63;;;24.17;;
46767;SDS011;69007;48.978;18.066;2024-02-15T06:03:18;39.65;;;22.83;;
46767;SDS011;69007;48.978;18.066;2024-02-15T06:05:47;35.00;;;21.30;;
46767;SDS011;69007;48.978;18.066;2024-02-15T06:08:12;37.75;;;22.48;;
46767;SDS011;69007;48.978;18.066;2024-02-15T06:10:38;34.22;;;21.55;;
46767;SDS011;69007;48.978;18.066;2024-02-15T06:13:05;36.08;;;21.67;;
46767;SDS011;69007;48.978;18.066;2024-02-15T06:15:30;34.17;;;20.63;;
46767;SDS011;69007;48.978;18.066;2024-02-15T06:17:56;32.63;;;21.30;;
46767;SDS011;69007;48.978;18.066;2024-02-15T06:20:22;34.13;;;21.33;;
46767;SDS011;69007;48.978;18.066;2024-02-15T06:22:48;32.15;;;19.90;;
46767;SDS011;69007;48.978;18.066;2024-02-15T06:25:13;38.55;;;21.45;;
46767;SDS011;69007;48.978;18.066;2024-02-15T06:27:40;35.78;;;21.50;;
46767;SDS011;69007;48.978;18.066;2024-02-15T06:30:07;36.65;;;21.60;;
46767;SDS011;69007;48.978;18.066;2024-02-15T06:32:52;38.40;;;22.23;;
46767;SDS011;69007;48.978;18.066;2024-02-15T06:35:37;48.60;;;26.48;;
46767;SDS011;69007;48.978;18.066;2024-02-15T06:38:21;43.50;;;23.85;;
46767;SDS011;69007;48.978;18.066;2024-02-15T06:41:04;52.55;;;23.60;;
46767;SDS011;69007;48.978;18.066;2024-02-15T06:43:30;38.47;;;22.92;;
46767;SDS011;69007;48.978;18.066;2024-02-15T06:45:55;41.85;;;23.98;;
46767;SDS011;69007;48.978;18.066;2024-02-15T06:48:20;63.47;;;32.95;;
46767;SDS011;69007;48.978;18.066;2024-02-15T06:50:49;56.78;;;30.15;;
46767;SDS011;69007;48.978;18.066;2024-02-15T06:53:14;60.75;;;33.00;;
46767;SDS011;69007;48.978;18.066;2024-02-15T06:55:39;70.13;;;39.13;;
46767;SDS011;69007;48.978;18.066;2024-02-15T06:58:05;58.90;;;34.83;;
46767;SDS011;69007;48.978;18.066;2024-02-15T07:00:30;54.88;;;32.58;;
46767;SDS011;69007;48.978;18.066;2024-02-15T07:02:56;60.53;;;32.97;;
46767;SDS011;69007;48.978;18.066;2024-02-15T07:05:21;45.60;;;23.55;;
46767;SDS011;69007;48.978;18.066;2024-02-15T07:07:48;41.67;;;24.98;;
46767;SDS011;69007;48.978;18.066;2024-02-15T07:10:14;37.17;;;23.95;;
46767;SDS011;69007;48.978;18.066;2024-02-15T07:12:41;46.63;;;25.92;;
46767;SDS011;69007;48.978;18.066;2024-02-15T07:15:08;37.33;;;21.67;;
46767;SDS011;69007;48.978;18.066;2024-02-15T07:17:35;49.13;;;28.88;;
46767;SDS011;69007;48.978;18.066;2024-02-15T07:20:02;47.22;;;27.33;;
46767;SDS011;69007;48.978;18.066;2024-02-15T07:22:30;46.22;;;27.40;;
46767;SDS011;69007;48.978;18.066;2024-02-15T07:24:56;40.88;;;24.48;;
46767;SDS011;69007;48.978;18.066;2024-02-15T07:27:21;48.63;;;26.10;;
46767;SDS011;69007;48.978;18.066;2024-02-15T07:29:50;43.40;;;27.27;;
46767;SDS011;69007;48.978;18.066;2024-02-15T07:32:16;62.95;;;34.22;;
46767;SDS011;69007;48.978;18.066;2024-02-15T07:34:42;59.78;;;33.92;;
46767;SDS011;69007;48.978;18.066;2024-02-15T07:37:08;55.08;;;31.13;;
46767;SDS011;69007;48.978;18.066;2024-02-15T07:39:34;38.50;;;21.05;;
46767;SDS011;69007;48.978;18.066;2024-02-15T07:42:01;38.75;;;20.85;;
46767;SDS011;69007;48.978;18.066;2024-02-15T07:44:29;45.42;;;24.63;;
46767;SDS011;69007;48.978;18.066;2024-02-15T07:46:57;47.17;;;26.95;;
46767;SDS011;69007;48.978;18.066;2024-02-15T07:49:25;45.97;;;24.58;;
46767;SDS011;69007;48.978;18.066;2024-02-15T07:51:51;39.13;;;21.65;;
46767;SDS011;69007;48.978;18.066;2024-02-15T07:54:21;34.78;;;22.35;;
46767;SDS011;69007;48.978;18.066;2024-02-15T07:56:47;38.17;;;24.05;;
46767;SDS011;69007;48.978;18.066;2024-02-15T07:59:13;45.13;;;26.40;;
46767;SDS011;69007;48.978;18.066;2024-02-15T08:01:41;48.05;;;27.15;;
46767;SDS011;69007;48.978;18.066;2024-02-15T08:04:07;36.67;;;24.75;;
46767;SDS011;69007;48.978;18.066;2024-02-15T08:06:33;44.78;;;24.95;;
46767;SDS011;69007;48.978;18.066;2024-02-15T08:08:58;43.95;;;24.83;;
46767;SDS011;69007;48.978;18.066;2024-02-15T08:11:24;35.80;;;20.88;;
46767;SDS011;69007;48.978;18.066;2024-02-15T08:13:51;28.98;;;19.25;;
46767;SDS011;69007;48.978;18.066;2024-02-15T08:16:20;31.08;;;19.90;;
46767;SDS011;69007;48.978;18.066;2024-02-15T08:18:48;36.13;;;24.10;;
46767;SDS011;69007;48.978;18.066;2024-02-15T08:21:17;28.98;;;18.67;;
46767;SDS011;69007;48.978;18.066;2024-02-15T08:23:42;31.88;;;17.55;;
46767;SDS011;69007;48.978;18.066;2024-02-15T08:26:08;45.17;;;26.30;;
46767;SDS011;69007;48.978;18.066;2024-02-15T08:28:36;32.20;;;20.23;;
46767;SDS011;69007;48.978;18.066;2024-02-15T08:31:01;31.80;;;19.90;;
46767;SDS011;69007;48.978;18.066;2024-02-15T08:33:28;29.63;;;18.27;;
46767;SDS011;69007;48.978;18.066;2024-02-15T08:35:55;28.80;;;17.67;;
46767;SDS011;69007;48.978;18.066;2024-02-15T08:38:21;33.42;;;19.02;;
46767;SDS011;69007;48.978;18.066;2024-02-15T08:40:47;29.35;;;19.08;;
46767;SDS011;69007;48.978;18.066;2024-02-15T08:43:13;28.98;;;18.55;;
46767;SDS011;69007;48.978;18.066;2024-02-15T08:45:40;35.78;;;21.85;;
46767;SDS011;69007;48.978;18.066;2024-02-15T08:48:06;35.78;;;20.83;;
46767;SDS011;69007;48.978;18.066;2024-02-15T08:50:32;34.45;;;22.92;;
46767;SDS011;69007;48.978;18.066;2024-02-15T08:52:57;34.85;;;21.27;;
46767;SDS011;69007;48.978;18.066;2024-02-15T08:55:23;37.72;;;22.33;;
46767;SDS011;69007;48.978;18.066;2024-02-15T08:57:52;32.42;;;20.33;;
46767;SDS011;69007;48.978;18.066;2024-02-15T09:00:19;35.33;;;20.05;;
46767;SDS011;69007;48.978;18.066;2024-02-15T09:02:45;28.58;;;19.00;;
46767;SDS011;69007;48.978;18.066;2024-02-15T09:05:11;29.63;;;18.35;;
46767;SDS011;69007;48.978;18.066;2024-02-15T09:07:40;33.20;;;18.73;;
46767;SDS011;69007;48.978;18.066;2024-02-15T09:10:07;28.58;;;17.02;;
46767;SDS011;69007;48.978;18.066;2024-02-15T09:12:35;26.75;;;17.17;;
46767;SDS011;69007;48.978;18.066;2024-02-15T09:15:02;28.05;;;15.65;;
46767;SDS011;69007;48.978;18.066;2024-02-15T09:17:29;19.08;;;12.82;;
46767;SDS011;69007;48.978;18.066;2024-02-15T09:19:57;18.60;;;13.45;;
46767;SDS011;69007;48.978;18.066;2024-02-15T09:22:22;16.65;;;12.02;;
46767;SDS011;69007;48.978;18.066;2024-02-15T09:24:48;20.38;;;12.73;;
46767;SDS011;69007;48.978;18.066;2024-02-15T09:27:13;17.98;;;11.65;;
46767;SDS011;69007;48.978;18.066;2024-02-15T09:29:38;24.60;;;12.30;;
46767;SDS011;69007;48.978;18.066;2024-02-15T09:32:05;19.92;;;11.75;;
46767;SDS011;69007;48.978;18.066;2024-02-15T09:34:31;21.23;;;12.80;;
46767;SDS011;69007;48.978;18.066;2024-02-15T09:36:57;18.73;;;12.13;;
46767;SDS011;69007;48.978;18.066;2024-02-15T09:39:23;16.27;;;12.35;;
46767;SDS011;69007;48.978;18.066;2024-02-15T09:41:49;23.27;;;12.35;;
46767;SDS011;69007;48.978;18.066;2024-02-15T09:44:23;21.75;;;12.77;;
46767;SDS011;69007;48.978;18.066;2024-02-15T09:46:52;13.77;;;10.35;;
46767;SDS011;69007;48.978;18.066;2024-02-15T09:49:37;15.10;;;9.82;;
46767;SDS011;69007;48.978;18.066;2024-02-15T09:52:06;20.15;;;11.60;;
46767;SDS011;69007;48.978;18.066;2024-02-15T09:54:37;16.48;;;10.25;;
46767;SDS011;69007;48.978;18.066;2024-02-15T09:57:10;15.65;;;10.02;;
46767;SDS011;69007;48.978;18.066;2024-02-15T09:59:37;19.00;;;10.18;;
46767;SDS011;69007;48.978;18.066;2024-02-15T10:02:04;16.48;;;11.02;;
46767;SDS011;69007;48.978;18.066;2024-02-15T10:04:35;16.20;;;11.30;;
46767;SDS011;69007;48.978;18.066;2024-02-15T10:07:02;19.23;;;11.82;;
46767;SDS011;69007;48.978;18.066;2024-02-15T10:09:28;15.48;;;10.55;;
46767;SDS011;69007;48.978;18.066;2024-02-15T10:12:01;17.77;;;10.95;;
46767;SDS011;69007;48.978;18.066;2024-02-15T10:14:27;18.80;;;11.27;;
46767;SDS011;69007;48.978;18.066;2024-02-15T10:16:54;19.75;;;12.32;;
46767;SDS011;69007;48.978;18.066;2024-02-15T10:19:20;23.20;;;11.25;;
46767;SDS011;69007;48.978;18.066;2024-02-15T10:21:53;15.35;;;11.73;;
46767;SDS011;69007;48.978;18.066;2024-02-15T10:24:22;21.02;;;12.00;;
46767;SDS011;69007;48.978;18.066;2024-02-15T10:26:59;18.33;;;11.95;;
46767;SDS011;69007;48.978;18.066;2024-02-15T10:29:29;19.23;;;12.85;;
46767;SDS011;69007;48.978;18.066;2024-02-15T10:31:56;20.42;;;12.13;;
46767;SDS011;69007;48.978;18.066;2024-02-15T10:34:23;16.92;;;11.88;;
46767;SDS011;69007;48.978;18.066;2024-02-15T10:36:52;17.30;;;11.13;;
46767;SDS011;69007;48.978;18.066;2024-02-15T10:39:19;19.85;;;12.75;;
46767;SDS011;69007;48.978;18.066;2024-02-15T10:41:50;18.88;;;11.85;;
46767;SDS011;69007;48.978;18.066;2024-02-15T10:44:18;18.50;;;12.70;;
46767;SDS011;69007;48.978;18.066;2024-02-15T10:46:49;19.25;;;12.27;;
46767;SDS011;69007;48.978;18.066;2024-02-15T10:49:21;17.85;;;12.15;;
46767;SDS011;69007;48.978;18.066;2024-02-15T10:51:52;20.38;;;12.75;;
46767;SDS011;69007;48.978;18.066;2024-02-15T10:54:30;18.45;;;12.70;;
46767;SDS011;69007;48.978;18.066;2024-02-15T10:57:03;19.30;;;11.82;;
46767;SDS011;69007;48.978;18.066;2024-02-15T10:59:31;18.50;;;12.30;;
46767;SDS011;69007;48.978;18.066;2024-02-15T11:02:01;15.90;;;12.13;;
46767;SDS011;69007;48.978;18.066;2024-02-15T11:04:39;18.38;;;11.85;;
46767;SDS011;69007;48.978;18.066;2024-02-15T11:07:08;16.35;;;11.50;;
46767;SDS011;69007;48.978;18.066;2024-02-15T11:09:36;17.48;;;11.65;;
46767;SDS011;69007;48.978;18.066;2024-02-15T11:12:02;22.50;;;11.90;;
46767;SDS011;69007;48.978;18.066;2024-02-15T11:14:29;20.67;;;11.90;;
46767;SDS011;69007;48.978;18.066;2024-02-15T11:16:56;19.63;;;13.02;;
46767;SDS011;69007;48.978;18.066;2024-02-15T11:22:00;20.20;;;12.52;;
46767;SDS011;69007;48.978;18.066;2024-02-15T11:24:29;17.73;;;11.98;;
46767;SDS011;69007;48.978;18.066;2024-02-15T11:27:04;21.85;;;13.23;;
46767;SDS011;69007;48.978;18.066;2024-02-15T11:35:07;18.33;;;12.10;;
46767;SDS011;69007;48.978;18.066;2024-02-15T11:40:17;21.33;;;11.82;;
46767;SDS011;69007;48.978;18.066;2024-02-15T11:42:52;15.43;;;11.63;;
46767;SDS011;69007;48.978;18.066;2024-02-15T11:45:19;18.75;;;12.88;;
46767;SDS011;69007;48.978;18.066;2024-02-15T11:47:48;21.02;;;12.85;;
46767;SDS011;69007;48.978;18.066;2024-02-15T11:50:15;27.00;;;13.13;;
46767;SDS011;69007;48.978;18.066;2024-02-15T11:52:42;18.27;;;11.02;;
46767;SDS011;69007;48.978;18.066;2024-02-15T11:55:19;19.10;;;11.32;;
46767;SDS011;69007;48.978;18.066;2024-02-15T11:58:00;21.73;;;12.13;;
46767;SDS011;69007;48.978;18.066;2024-02-15T12:00:37;19.67;;;11.65;;
46767;SDS011;69007;48.978;18.066;2024-02-15T12:03:22;19.35;;;11.50;;
46767;SDS011;69007;48.978;18.066;2024-02-15T12:06:07;17.48;;;11.27;;
46767;SDS011;69007;48.978;18.066;2024-02-15T12:08:52;17.40;;;11.93;;
46767;SDS011;69007;48.978;18.066;2024-02-15T12:11:37;16.73;;;11.27;;
46767;SDS011;69007;48.978;18.066;2024-02-15T12:14:22;16.35;;;11.30;;
46767;SDS011;69007;48.978;18.066;2024-02-15T12:17:07;14.15;;;10.23;;
46767;SDS011;69007;48.978;18.066;2024-02-15T12:19:53;18.95;;;11.15;;
46767;SDS011;69007;48.978;18.066;2024-02-15T12:22:27;16.52;;;11.05;;
46767;SDS011;69007;48.978;18.066;2024-02-15T12:25:00;18.02;;;11.50;;
46767;SDS011;69007;48.978;18.066;2024-02-15T12:27:36;17.65;;;11.30;;
46767;SDS011;69007;48.978;18.066;2024-02-15T12:30:04;15.20;;;11.25;;
46767;SDS011;69007;48.978;18.066;2024-02-15T12:32:31;19.08;;;11.18;;
46767;SDS011;69007;48.978;18.066;2024-02-15T12:35:13;17.45;;;11.40;;
46767;SDS011;69007;48.978;18.066;2024-02-15T12:37:48;18.08;;;10.98;;
46767;SDS011;69007;48.978;18.066;2024-02-15T12:40:35;17.80;;;11.35;;
46767;SDS011;69007;48.978;18.066;2024-02-15T12:43:01;19.73;;;11.65;;
46767;SDS011;69007;48.978;18.066;2024-02-15T12:45:30;12.63;;;9.80;;
46767;SDS011;69007;48.978;18.066;2024-02-15T12:47:57;18.90;;;11.23;;
46767;SDS011;69007;48.978;18.066;2024-02-15T12:50:23;17.02;;;11.30;;
46767;SDS011;69007;48.978;18.066;2024-02-15T12:52:53;19.40;;;11.55;;
46767;SDS011;69007;48.978;18.066;2024-02-15T12:55:20;16.95;;;11.32;;
46767;SDS011;69007;48.978;18.066;2024-02-15T12:57:47;16.95;;;11.30;;
46767;SDS011;69007;48.978;18.066;2024-02-15T13:00:21;17.45;;;11.23;;
46767;SDS011;69007;48.978;18.066;2024-02-15T13:02:49;22.38;;;11.60;;
46767;SDS011;69007;48.978;18.066;2024-02-15T13:05:16;18.83;;;11.95;;
46767;SDS011;69007;48.978;18.066;2024-02-15T13:07:46;26.50;;;15.45;;
46767;SDS011;69007;48.978;18.066;2024-02-15T13:10:12;18.40;;;12.05;;
46767;SDS011;69007;48.978;18.066;2024-02-15T13:12:39;17.88;;;11.75;;
46767;SDS011;69007;48.978;18.066;2024-02-15T13:15:14;27.02;;;14.60;;
46767;SDS011;69007;48.978;18.066;2024-02-15T13:17:49;21.45;;;12.57;;
46767;SDS011;69007;48.978;18.066;2024-02-15T13:20:18;23.58;;;13.30;;
46767;SDS011;69007;48.978;18.066;2024-02-15T13:23:03;17.95;;;12.40;;
46767;SDS011;69007;48.978;18.066;2024-02-15T13:25:50;17.98;;;11.85;;
46767;SDS011;69007;48.978;18.066;2024-02-15T13:28:17;16.40;;;11.73;;
46767;SDS011;69007;48.978;18.066;2024-02-15T13:30:43;18.50;;;12.25;;
46767;SDS011;69007;48.978;18.066;2024-02-15T13:33:10;15.60;;;11.02;;
46767;SDS011;69007;48.978;18.066;2024-02-15T13:35:36;19.27;;;11.57;;
46767;SDS011;69007;48.978;18.066;2024-02-15T13:38:01;14.73;;;10.85;;
46767;SDS011;69007;48.978;18.066;2024-02-15T13:40:28;14.65;;;9.98;;
46767;SDS011;69007;48.978;18.066;2024-02-15T13:42:55;16.23;;;11.32;;
46767;SDS011;69007;48.978;18.066;2024-02-15T13:45:30;16.88;;;11.50;;
46767;SDS011;69007;48.978;18.066;2024-02-15T13:48:00;21.02;;;11.82;;
46767;SDS011;69007;48.978;18.066;2024-02-15T13:50:28;18.75;;;11.77;;
46767;SDS011;69007;48.978;18.066;2024-02-15T13:52:54;21.33;;;11.90;;
46767;SDS011;69007;48.978;18.066;2024-02-15T13:55:20;16.75;;;11.70;;
46767;SDS011;69007;48.978;18.066;2024-02-15T13:57:49;15.93;;;10.93;;
46767;SDS011;69007;48.978;18.066;2024-02-15T14:00:15;17.38;;;11.15;;
46767;SDS011;69007;48.978;18.066;2024-02-15T14:02:54;16.90;;;11.40;;
46767;SDS011;69007;48.978;18.066;2024-02-15T14:05:22;21.90;;;11.50;;
46767;SDS011;69007;48.978;18.066;2024-02-15T14:07:51;20.50;;;11.85;;
46767;SDS011;69007;48.978;18.066;2024-02-15T14:10:18;23.42;;;12.93;;
46767;SDS011;69007;48.978;18.066;2024-02-15T14:12:46;18.88;;;11.43;;
46767;SDS011;69007;48.978;18.066;2024-02-15T14:15:15;24.10;;;13.02;;
46767;SDS011;69007;48.978;18.066;2024-02-15T14:17:42;21.40;;;12.45;;
46767;SDS011;69007;48.978;18.066;2024-02-15T14:20:09;18.10;;;12.10;;
46767;SDS011;69007;48.978;18.066;2024-02-15T14:22:38;22.25;;;11.95;;
46767;SDS011;69007;48.978;18.066;2024-02-15T14:25:09;22.35;;;12.13;;